createdAt,value
2022-08-17T00:00:34.626Z,18.29
2022-08-17T00:03:11.082Z,18.26
2022-08-17T00:05:44.542Z,18.25
2022-08-17T00:08:14.274Z,18.23
2022-08-17T00:10:43.449Z,18.22
2022-08-17T00:13:14.513Z,18.22
2022-08-17T00:15:44.822Z,18.20
2022-08-17T00:18:57.523Z,18.18
2022-08-17T00:21:01.324Z,18.16
2022-08-17T00:23:29.355Z,18.13
2022-08-17T00:25:57.672Z,18.11
2022-08-17T00:28:26.346Z,18.11
2022-08-17T00:31:00.518Z,18.12
2022-08-17T00:33:31.169Z,18.11
2022-08-17T00:36:00.343Z,18.10
2022-08-17T00:38:29.986Z,18.09
2022-08-17T00:41:04.078Z,18.07
2022-08-17T00:43:34.511Z,18.06
2022-08-17T00:46:08.142Z,18.05
2022-08-17T00:48:37.107Z,18.04
2022-08-17T00:51:11.005Z,18.04
2022-08-17T00:53:42.989Z,18.03
2022-08-17T00:56:17.437Z,18.04
2022-08-17T00:58:49.626Z,18.03
2022-08-17T01:01:21.290Z,18.05
2022-08-17T01:03:51.534Z,18.05
2022-08-17T01:06:20.470Z,18.05
2022-08-17T01:08:57.320Z,18.06
2022-08-17T01:11:26.076Z,18.06
2022-08-17T01:13:54.088Z,18.06
2022-08-17T01:16:27.560Z,18.05
2022-08-17T01:18:58.065Z,18.03
2022-08-17T01:21:40.852Z,18.03
2022-08-17T01:24:10.415Z,18.02
2022-08-17T01:26:40.344Z,18.01
2022-08-17T01:29:08.700Z,18.00
2022-08-17T01:31:40.019Z,17.99
2022-08-17T01:34:09.800Z,17.97
2022-08-17T01:36:41.225Z,17.96
2022-08-17T01:39:18.099Z,17.94
2022-08-17T01:41:47.735Z,17.93
2022-08-17T01:44:18.812Z,17.93
2022-08-17T01:46:46.779Z,17.93
2022-08-17T01:49:14.727Z,17.89
2022-08-17T01:51:42.720Z,17.87
2022-08-17T01:54:14.898Z,17.86
2022-08-17T01:56:47.472Z,17.83
2022-08-17T01:59:16.483Z,17.83
2022-08-17T02:01:45.144Z,17.81
2022-08-17T02:04:13.544Z,17.82
2022-08-17T02:06:52.831Z,17.82
2022-08-17T02:09:25.574Z,17.83
2022-08-17T02:11:55.217Z,17.85
2022-08-17T02:14:25.234Z,17.85
2022-08-17T02:16:54.178Z,17.86
2022-08-17T02:19:32.701Z,17.88
2022-08-17T02:22:00.709Z,17.88
2022-08-17T02:24:59.568Z,17.88
2022-08-17T02:27:21.976Z,17.90
2022-08-17T02:29:49.931Z,17.89
2022-08-17T02:32:28.226Z,17.88
2022-08-17T02:34:57.319Z,17.87
2022-08-17T02:37:25.705Z,17.85
2022-08-17T02:39:57.019Z,17.84
2022-08-17T02:42:29.062Z,17.84
2022-08-17T02:44:57.012Z,17.84
2022-08-17T02:47:25.182Z,17.84
2022-08-17T02:49:55.434Z,17.84
2022-08-17T02:52:43.811Z,17.85
2022-08-17T02:55:16.698Z,17.84
2022-08-17T02:57:45.155Z,17.84
2022-08-17T03:00:21.240Z,17.84
2022-08-17T03:02:49.949Z,17.84
2022-08-17T03:05:21.739Z,17.85
2022-08-17T03:07:49.846Z,17.86
2022-08-17T03:10:20.671Z,17.84
2022-08-17T03:12:49.699Z,17.85
2022-08-17T03:15:22.593Z,17.84
2022-08-17T03:17:50.994Z,17.84
2022-08-17T03:20:20.327Z,17.85
2022-08-17T03:22:53.053Z,17.85
2022-08-17T03:25:25.583Z,17.87
2022-08-17T03:27:54.352Z,17.87
2022-08-17T03:30:23.541Z,17.88
2022-08-17T03:32:54.796Z,17.87
2022-08-17T03:35:25.202Z,17.87
2022-08-17T03:38:00.210Z,17.88
2022-08-17T03:40:55.286Z,17.88
2022-08-17T03:43:20.531Z,17.88
2022-08-17T03:46:06.168Z,17.87
2022-08-17T03:49:08.956Z,17.87
2022-08-17T03:51:54.393Z,17.87
2022-08-17T03:54:39.793Z,17.87
2022-08-17T03:57:11.236Z,17.88
2022-08-17T03:59:40.572Z,17.88
2022-08-17T04:02:12.358Z,17.87
2022-08-17T04:04:40.529Z,17.87
2022-08-17T04:07:08.988Z,17.87
2022-08-17T04:09:37.623Z,17.87
2022-08-17T04:12:08.994Z,17.87
2022-08-17T04:14:53.619Z,17.87
2022-08-17T04:17:26.116Z,17.87
2022-08-17T04:19:55.119Z,17.88
2022-08-17T04:22:30.482Z,17.88
2022-08-17T04:25:06.798Z,17.86
2022-08-17T04:27:36.401Z,17.85
2022-08-17T04:30:06.995Z,17.82
2022-08-17T04:33:04.057Z,17.80
2022-08-17T04:35:37.907Z,17.76
2022-08-17T04:38:06.682Z,17.75
2022-08-17T04:40:52.880Z,17.74
2022-08-17T04:43:23.847Z,17.74
2022-08-17T04:45:56.629Z,17.73
2022-08-17T04:48:29.980Z,17.72
2022-08-17T04:51:06.926Z,17.74
2022-08-17T04:53:34.859Z,17.73
2022-08-17T04:56:03.010Z,17.69
2022-08-17T04:58:32.490Z,17.68
2022-08-17T05:01:01.385Z,17.66
2022-08-17T05:03:29.996Z,17.65
2022-08-17T05:05:57.988Z,17.64
2022-08-17T05:08:25.921Z,17.62
2022-08-17T05:10:53.894Z,17.62
2022-08-17T05:13:24.344Z,17.61
2022-08-17T05:15:57.043Z,17.62
2022-08-17T05:18:25.441Z,17.62
2022-08-17T05:20:53.759Z,17.62
2022-08-17T05:23:24.588Z,17.62
2022-08-17T05:25:54.708Z,17.62
2022-08-17T05:28:24.072Z,17.62
2022-08-17T05:30:59.242Z,17.64
2022-08-17T05:33:30.071Z,17.64
2022-08-17T05:36:00.373Z,17.68
2022-08-17T05:38:30.839Z,17.70
2022-08-17T05:40:59.300Z,17.72
2022-08-17T05:43:29.270Z,17.74
2022-08-17T05:46:06.025Z,17.78
2022-08-17T05:48:39.976Z,17.81
2022-08-17T05:51:22.145Z,17.84
2022-08-17T05:53:59.551Z,17.89
2022-08-17T05:56:38.897Z,17.93
2022-08-17T05:59:18.655Z,17.96
2022-08-17T06:02:02.949Z,17.99
2022-08-17T06:04:42.290Z,18.02
2022-08-17T06:07:21.109Z,18.04
2022-08-17T06:09:55.247Z,18.06
2022-08-17T06:12:41.614Z,18.09
2022-08-17T06:15:24.613Z,18.12
2022-08-17T06:18:01.045Z,18.14
2022-08-17T06:20:46.238Z,18.17
2022-08-17T06:23:21.796Z,18.21
2022-08-17T06:25:53.705Z,18.22
2022-08-17T06:28:31.406Z,18.25
2022-08-17T06:31:06.308Z,18.28
2022-08-17T06:33:39.419Z,18.32
2022-08-17T06:36:31.059Z,18.35
2022-08-17T06:39:13.360Z,18.37
2022-08-17T06:41:49.621Z,18.39
2022-08-17T06:44:49.957Z,18.44
2022-08-17T06:47:15.682Z,18.50
2022-08-17T06:50:07.137Z,18.58
2022-08-17T06:52:50.087Z,18.61
2022-08-17T06:55:25.027Z,18.64
2022-08-17T06:57:56.611Z,18.66
2022-08-17T07:00:29.015Z,18.69
2022-08-17T07:03:19.007Z,18.72
2022-08-17T07:05:53.122Z,18.75
2022-08-17T07:08:35.113Z,18.78
2022-08-17T07:11:06.110Z,18.84
2022-08-17T07:13:43.312Z,18.92
2022-08-17T07:16:23.314Z,19.01
2022-08-17T07:18:54.857Z,19.12
2022-08-17T07:21:47.375Z,19.20
2022-08-17T07:24:30.673Z,19.26
2022-08-17T07:27:07.602Z,19.32
2022-08-17T07:29:41.087Z,19.36
2022-08-17T07:32:11.067Z,19.39
2022-08-17T07:35:01.320Z,19.39
2022-08-17T07:37:33.378Z,19.33
2022-08-17T07:40:16.802Z,19.29
2022-08-17T07:43:02.385Z,19.23
2022-08-17T07:45:51.129Z,19.19
2022-08-17T07:48:23.575Z,19.19
2022-08-17T07:50:53.201Z,19.19
2022-08-17T07:53:24.510Z,19.20
2022-08-17T07:55:53.949Z,19.22
2022-08-17T07:58:24.017Z,19.23
2022-08-17T08:01:08.996Z,19.25
2022-08-17T08:03:42.144Z,19.27
2022-08-17T08:06:24.134Z,19.31
2022-08-17T08:08:55.915Z,19.37
2022-08-17T08:11:33.724Z,19.43
2022-08-17T08:14:28.641Z,19.49
2022-08-17T08:17:00.218Z,19.58
2022-08-17T08:19:29.568Z,19.71
2022-08-17T08:22:06.147Z,19.83
2022-08-17T08:24:55.446Z,19.90
2022-08-17T08:27:36.399Z,19.96
2022-08-17T08:30:10.010Z,20.03
2022-08-17T08:32:51.213Z,20.07
2022-08-17T08:35:30.882Z,20.08
2022-08-17T08:38:08.377Z,20.02
2022-08-17T08:40:51.045Z,20.00
2022-08-17T08:43:27.285Z,20.01
2022-08-17T08:46:04.356Z,20.03
2022-08-17T08:48:58.104Z,20.09
2022-08-17T08:51:37.146Z,20.13
2022-08-17T08:54:13.809Z,20.14
2022-08-17T08:57:19.736Z,20.21
2022-08-17T08:59:57.870Z,20.26
2022-08-17T09:02:46.598Z,20.31
2022-08-17T09:05:27.137Z,20.36
2022-08-17T09:08:05.048Z,20.48
2022-08-17T09:10:46.063Z,20.59
2022-08-17T09:13:23.702Z,20.71
2022-08-17T09:15:59.232Z,20.78
2022-08-17T09:19:03.101Z,20.82
2022-08-17T09:21:27.965Z,20.82
2022-08-17T09:24:09.817Z,20.78
2022-08-17T09:26:46.440Z,20.76
2022-08-17T09:29:18.074Z,20.78
2022-08-17T09:31:53.426Z,20.89
2022-08-17T09:34:33.185Z,21.03
2022-08-17T09:37:15.106Z,21.16
2022-08-17T09:39:49.692Z,21.23
2022-08-17T09:42:25.003Z,21.20
2022-08-17T09:45:05.055Z,21.13
2022-08-17T09:47:45.573Z,21.07
2022-08-17T09:51:04.006Z,21.05
2022-08-17T09:53:10.028Z,21.08
2022-08-17T09:55:49.907Z,21.14
2022-08-17T09:58:29.017Z,21.34
2022-08-17T10:01:08.280Z,21.48
2022-08-17T10:03:57.637Z,21.57
2022-08-17T10:06:31.445Z,21.56
2022-08-17T10:09:10.248Z,21.56
2022-08-17T10:12:00.999Z,21.48
2022-08-17T10:14:44.097Z,21.42
2022-08-17T10:17:21.760Z,21.45
2022-08-17T10:19:59.721Z,21.44
2022-08-17T10:22:53.353Z,21.39
2022-08-17T10:25:54.506Z,21.34
2022-08-17T10:28:29.458Z,21.45
2022-08-17T10:31:33.213Z,21.55
2022-08-17T10:34:14.077Z,21.61
2022-08-17T10:36:50.217Z,21.63
2022-08-17T10:39:30.850Z,21.64
2022-08-17T10:42:04.252Z,21.74
2022-08-17T10:44:46.854Z,21.83
2022-08-17T10:47:17.441Z,21.94
2022-08-17T10:49:53.530Z,22.09
2022-08-17T10:52:50.154Z,22.34
2022-08-17T10:55:20.649Z,22.48
2022-08-17T10:57:51.428Z,22.62
2022-08-17T11:01:12.805Z,22.69
2022-08-17T11:03:54.808Z,22.70
2022-08-17T11:06:37.117Z,22.74
2022-08-17T11:09:27.645Z,22.79
2022-08-17T11:12:25.625Z,22.89
2022-08-17T11:15:11.192Z,22.89
2022-08-17T11:17:54.673Z,22.99
2022-08-17T11:20:48.962Z,23.05
2022-08-17T11:23:45.805Z,23.09
2022-08-17T11:26:25.930Z,23.09
2022-08-17T11:28:59.568Z,23.13
2022-08-17T11:31:38.952Z,23.19
2022-08-17T11:34:15.230Z,23.20
2022-08-17T11:37:11.708Z,23.29
2022-08-17T11:40:05.019Z,23.39
2022-08-17T11:42:56.881Z,23.45
2022-08-17T11:45:53.237Z,23.63
2022-08-17T11:48:50.243Z,23.78
2022-08-17T11:51:34.649Z,24.05
2022-08-17T11:54:32.689Z,24.22
2022-08-17T11:56:58.934Z,24.26
2022-08-17T11:59:54.943Z,24.33
2022-08-17T12:02:36.106Z,24.37
2022-08-17T12:05:27.529Z,24.35
2022-08-17T12:08:09.219Z,24.34
2022-08-17T12:10:49.470Z,24.40
2022-08-17T12:13:20.029Z,24.50
2022-08-17T12:15:51.513Z,24.54
2022-08-17T12:18:24.585Z,24.53
2022-08-17T12:21:20.926Z,24.62
2022-08-17T12:23:57.690Z,24.89
2022-08-17T12:26:30.436Z,25.08
2022-08-17T12:29:02.459Z,25.28
2022-08-17T12:31:34.815Z,25.49
2022-08-17T12:34:03.932Z,25.74
2022-08-17T12:36:33.800Z,25.79
2022-08-17T12:39:14.201Z,25.90
2022-08-17T12:41:47.959Z,25.84
2022-08-17T12:44:21.930Z,25.82
2022-08-17T12:46:54.146Z,25.98
2022-08-17T12:49:31.416Z,26.17
2022-08-17T12:52:14.497Z,26.20
2022-08-17T12:54:49.211Z,26.19
2022-08-17T12:57:21.233Z,26.11
2022-08-17T12:59:55.694Z,26.11
2022-08-17T13:02:31.477Z,26.06
2022-08-17T13:05:01.991Z,26.07
2022-08-17T13:07:32.721Z,26.10
2022-08-17T13:10:01.001Z,26.11
2022-08-17T13:12:32.004Z,26.22
2022-08-17T13:15:01.812Z,26.40
2022-08-17T13:17:34.677Z,26.56
2022-08-17T13:20:06.135Z,26.60
2022-08-17T13:22:34.099Z,26.58
2022-08-17T13:25:07.083Z,26.34
2022-08-17T13:27:35.179Z,26.22
2022-08-17T13:30:12.744Z,26.36
2022-08-17T13:32:44.090Z,26.65
2022-08-17T13:35:50.177Z,26.97
2022-08-17T13:38:40.528Z,27.30
2022-08-17T13:41:08.880Z,27.68
2022-08-17T13:43:45.068Z,28.07
2022-08-17T13:46:20.779Z,28.50
2022-08-17T13:49:01.544Z,28.89
2022-08-17T13:51:33.607Z,28.95
2022-08-17T13:54:09.521Z,28.91
2022-08-17T13:56:50.856Z,29.13
2022-08-17T13:59:53.346Z,29.27
2022-08-17T14:02:21.435Z,29.27
2022-08-17T14:04:50.350Z,29.04
2022-08-17T14:07:41.630Z,28.65
2022-08-17T14:10:14.876Z,28.36
2022-08-17T14:12:44.731Z,28.05
2022-08-17T14:15:14.348Z,27.83
2022-08-17T14:17:43.744Z,27.70
2022-08-17T14:20:13.670Z,27.62
2022-08-17T14:22:45.922Z,27.61
2022-08-17T14:25:16.529Z,27.64
2022-08-17T14:27:52.723Z,27.71
2022-08-17T14:30:25.246Z,27.61
2022-08-17T14:32:56.594Z,27.69
2022-08-17T14:35:27.463Z,27.75
2022-08-17T14:37:55.459Z,27.90
2022-08-17T14:40:25.486Z,28.10
2022-08-17T14:42:55.188Z,28.20
2022-08-17T14:45:31.773Z,28.25
2022-08-17T14:48:05.818Z,28.20
2022-08-17T14:50:35.426Z,28.07
2022-08-17T14:53:04.598Z,28.07
2022-08-17T14:55:32.805Z,28.15
2022-08-17T14:58:00.871Z,28.31
2022-08-17T15:00:28.868Z,28.54
2022-08-17T15:02:59.143Z,28.62
2022-08-17T15:05:31.348Z,28.62
2022-08-17T15:07:59.952Z,28.72
2022-08-17T15:10:29.255Z,28.80
2022-08-17T15:12:57.494Z,28.58
2022-08-17T15:15:25.834Z,28.43
2022-08-17T15:17:53.831Z,28.22
2022-08-17T15:20:24.090Z,28.12
2022-08-17T15:22:55.423Z,28.14
2022-08-17T15:25:24.354Z,28.36
2022-08-17T15:27:52.703Z,28.50
2022-08-17T15:30:22.030Z,28.56
2022-08-17T15:32:55.140Z,28.68
2022-08-17T15:35:28.158Z,28.81
2022-08-17T15:38:04.652Z,28.91
2022-08-17T15:40:37.342Z,28.99
2022-08-17T15:43:06.963Z,28.98
2022-08-17T15:45:35.365Z,29.09
2022-08-17T15:48:03.519Z,29.23
2022-08-17T15:50:31.825Z,29.32
2022-08-17T15:53:02.283Z,29.36
2022-08-17T15:55:31.627Z,29.49
2022-08-17T15:57:59.709Z,29.67
2022-08-17T16:00:28.558Z,29.83
2022-08-17T16:03:46.978Z,29.99
2022-08-17T16:05:46.379Z,30.06
2022-08-17T16:08:20.614Z,30.02
2022-08-17T16:10:49.695Z,29.98
2022-08-17T16:13:18.999Z,29.96
2022-08-17T16:15:56.836Z,29.96
2022-08-17T16:18:27.369Z,29.95
2022-08-17T16:20:55.333Z,30.05
2022-08-17T16:23:25.316Z,30.03
2022-08-17T16:25:54.454Z,29.78
2022-08-17T16:28:30.917Z,29.64
2022-08-17T16:31:08.077Z,29.57
2022-08-17T16:33:37.752Z,29.68
2022-08-17T16:36:07.256Z,29.78
2022-08-17T16:38:38.603Z,29.83
2022-08-17T16:41:07.353Z,29.52
2022-08-17T16:43:35.990Z,29.30
2022-08-17T16:46:04.024Z,29.22
2022-08-17T16:48:32.081Z,28.77
2022-08-17T16:51:03.488Z,28.34
2022-08-17T16:53:32.773Z,28.17
2022-08-17T16:56:03.631Z,28.17
2022-08-17T16:58:31.602Z,28.41
2022-08-17T17:00:59.994Z,28.69
2022-08-17T17:03:30.661Z,29.03
2022-08-17T17:06:14.506Z,29.34
2022-08-17T17:08:48.443Z,29.48
2022-08-17T17:11:26.072Z,29.57
2022-08-17T17:14:02.124Z,29.68
2022-08-17T17:16:37.999Z,29.69
2022-08-17T17:19:12.398Z,29.67
2022-08-17T17:21:47.981Z,29.72
2022-08-17T17:24:38.588Z,29.78
2022-08-17T17:27:17.668Z,29.86
2022-08-17T17:30:03.448Z,29.87
2022-08-17T17:32:38.582Z,29.77
2022-08-17T17:35:11.891Z,29.42
2022-08-17T17:37:44.015Z,29.22
2022-08-17T17:40:19.132Z,29.06
2022-08-17T17:42:50.221Z,28.98
2022-08-17T17:45:24.288Z,28.89
2022-08-17T17:47:52.785Z,28.37
2022-08-17T17:50:27.695Z,27.68
2022-08-17T17:53:03.218Z,27.38
2022-08-17T17:55:40.822Z,27.46
2022-08-17T17:58:29.429Z,27.55
2022-08-17T18:01:13.529Z,27.75
2022-08-17T18:03:59.204Z,27.82
2022-08-17T18:06:39.774Z,27.39
2022-08-17T18:09:19.354Z,26.88
2022-08-17T18:12:03.483Z,26.43
2022-08-17T18:14:47.444Z,26.00
2022-08-17T18:17:15.465Z,25.54
2022-08-17T18:19:43.388Z,25.14
2022-08-17T18:22:15.011Z,25.00
2022-08-17T18:24:45.739Z,24.93
2022-08-17T18:27:23.293Z,24.85
2022-08-17T18:29:54.763Z,24.73
2022-08-17T18:32:32.540Z,24.59
2022-08-17T18:35:28.291Z,24.40
2022-08-17T18:37:59.019Z,24.13
2022-08-17T18:40:37.592Z,23.90
2022-08-17T18:43:13.337Z,23.72
2022-08-17T18:45:48.955Z,23.57
2022-08-17T18:48:23.683Z,23.46
2022-08-17T18:50:54.829Z,23.37
2022-08-17T18:53:30.397Z,23.29
2022-08-17T18:56:22.599Z,23.23
2022-08-17T18:59:02.080Z,23.12
2022-08-17T19:01:46.904Z,23.02
2022-08-17T19:04:34.467Z,22.94
2022-08-17T19:07:26.844Z,22.86
2022-08-17T19:10:02.399Z,22.76
2022-08-17T19:12:35.714Z,22.66
2022-08-17T19:15:05.290Z,22.57
2022-08-17T19:17:45.274Z,22.49
2022-08-17T19:20:19.729Z,22.41
2022-08-17T19:23:01.593Z,22.32
2022-08-17T19:25:33.519Z,22.27
2022-08-17T19:28:21.938Z,22.24
2022-08-17T19:30:55.790Z,22.23
2022-08-17T19:33:25.816Z,22.23
2022-08-17T19:36:02.065Z,22.22
2022-08-17T19:38:41.502Z,22.20
2022-08-17T19:41:19.510Z,22.18
2022-08-17T19:43:58.663Z,22.15
2022-08-17T19:46:35.641Z,22.12
2022-08-17T19:49:40.275Z,22.10
2022-08-17T19:52:24.140Z,22.07
2022-08-17T19:54:58.932Z,22.02
2022-08-17T19:57:38.266Z,22.00
2022-08-17T20:00:12.081Z,21.94
2022-08-17T20:02:49.247Z,21.90
2022-08-17T20:05:25.060Z,21.88
2022-08-17T20:07:57.897Z,21.83
2022-08-17T20:10:34.102Z,21.79
2022-08-17T20:13:07.112Z,21.75
2022-08-17T20:15:37.827Z,21.71
2022-08-17T20:18:14.823Z,21.65
2022-08-17T20:20:54.790Z,21.60
2022-08-17T20:23:32.467Z,21.56
2022-08-17T20:26:14.833Z,21.51
2022-08-17T20:29:11.418Z,21.51
2022-08-17T20:31:45.787Z,21.48
2022-08-17T20:34:36.736Z,21.46
2022-08-17T20:37:10.200Z,21.40
2022-08-17T20:39:41.983Z,21.36
2022-08-17T20:42:29.714Z,21.33
2022-08-17T20:45:02.356Z,21.28
2022-08-17T20:47:33.349Z,21.23
2022-08-17T20:50:05.896Z,21.23
2022-08-17T20:52:54.099Z,21.24
2022-08-17T20:55:55.832Z,21.23
2022-08-17T20:58:56.853Z,21.19
2022-08-17T21:01:39.571Z,21.15
2022-08-17T21:04:10.510Z,21.09
2022-08-17T21:07:21.151Z,21.08
2022-08-17T21:09:50.746Z,21.06
2022-08-17T21:12:40.679Z,21.07
2022-08-17T21:15:21.380Z,21.05
2022-08-17T21:18:00.697Z,21.05
2022-08-17T21:20:35.922Z,21.04
2022-08-17T21:23:40.306Z,21.05
2022-08-17T21:26:20.027Z,21.02
2022-08-17T21:29:30.158Z,21.01
2022-08-17T21:32:19.045Z,21.00
2022-08-17T21:35:38.856Z,20.95
2022-08-17T21:38:14.930Z,20.87
2022-08-17T21:40:50.135Z,20.81
2022-08-17T21:43:28.208Z,20.79
2022-08-17T21:46:00.839Z,20.77
2022-08-17T21:48:31.294Z,20.76
2022-08-17T21:51:04.721Z,20.77
2022-08-17T21:53:39.485Z,20.79
2022-08-17T21:56:08.789Z,20.80
2022-08-17T21:58:41.041Z,20.81
2022-08-17T22:01:30.903Z,20.84
2022-08-17T22:04:04.206Z,20.80
2022-08-17T22:06:38.074Z,20.79
2022-08-17T22:09:14.844Z,20.77
2022-08-17T22:11:52.597Z,20.77
2022-08-17T22:14:24.330Z,20.77
2022-08-17T22:17:08.560Z,20.78
2022-08-17T22:19:37.718Z,20.75
2022-08-17T22:22:07.387Z,20.76
2022-08-17T22:24:34.375Z,20.78
2022-08-17T22:27:08.017Z,20.77
2022-08-17T22:29:58.296Z,20.78
2022-08-17T22:32:49.886Z,20.78
2022-08-17T22:35:32.679Z,20.76
2022-08-17T22:38:32.069Z,20.75
2022-08-17T22:41:36.901Z,20.71
2022-08-17T22:44:16.433Z,20.66
2022-08-17T22:46:55.328Z,20.62
2022-08-17T22:49:26.657Z,20.60
2022-08-17T22:52:02.824Z,20.58
2022-08-17T22:54:49.053Z,20.57
2022-08-17T22:57:36.119Z,20.55
2022-08-17T23:00:05.914Z,20.55
2022-08-17T23:02:36.113Z,20.54
2022-08-17T23:05:25.442Z,20.54
2022-08-17T23:07:53.731Z,20.51
2022-08-17T23:10:21.818Z,20.47
2022-08-17T23:12:49.823Z,20.43
2022-08-17T23:15:19.687Z,20.38
2022-08-17T23:17:49.283Z,20.33
2022-08-17T23:20:17.963Z,20.31
2022-08-17T23:22:52.177Z,20.31
2022-08-17T23:25:26.453Z,20.31
2022-08-17T23:27:54.525Z,20.31
2022-08-17T23:30:27.265Z,20.28
2022-08-17T23:32:59.483Z,20.23
2022-08-17T23:35:39.721Z,20.16
2022-08-17T23:38:10.166Z,20.09
2022-08-17T23:40:39.544Z,20.01
2022-08-17T23:43:24.760Z,19.95
2022-08-17T23:45:55.164Z,19.87
2022-08-17T23:48:36.270Z,19.81
2022-08-17T23:51:09.816Z,19.74
2022-08-17T23:53:44.736Z,19.69
2022-08-17T23:56:12.744Z,19.64
2022-08-17T23:58:43.125Z,19.60
